• Join FlightAware (Why Join?)
  • Login
  • US Flag 
03:42AM EDT


 

Airport Tracker/Info


-or-


 

Live Flight TrackerFlight Track Log ✈ GJS3618 ✈ 04-Jul-2013 ✈ KORD - KOMA

Flight Track Log - Related Links

Times and Time Zones

All times are in EDT time to prevent confusion due to time zone crossing. See the GJS3618 flight status page for this flight to view local times or setup timezone preferences in your user account.

Time Position Orientation Groundspeed Altitude Reporting Facility
EDT Latitude Longitude Course Direction KTS MPH feet Rate Location/Type
06:35PM 41.9667 -87.9833 261° West 183 211 2,800  Level Chicago TRACON
06:36PM 41.9667 -88.0667 270° West 256 295 4,700 2,280 Climbing Chicago TRACON
06:37PM 41.9167 -88.4399 270° West  Level FlightAware Approximate
06:37PM 41.9667 -88.1833 270° West 256 295 7,900  Level Chicago TRACON
06:38PM 41.9038 -88.5765 261° West  Level FlightAware Approximate
06:38PM 41.9792 -88.2772 280° West 265 305 10,500  Level Chicago Center
06:39PM 41.8878 -88.7128 261° West  Level FlightAware Approximate
06:39PM 41.9756 -88.3858 267° West 289 333 13,200  Level Chicago Center
06:40PM 41.8721 -88.8490 261° West  Level FlightAware Approximate
06:40PM 41.9592 -88.4967 259° West 306 352 15,100  Level Chicago Center
06:41PM 41.9342 -88.6211 255° West 346 398 16,400 1,680 Climbing Chicago Center
06:42PM 41.9103 -88.7556 257° West 370 426 18,600 2,100 Climbing Chicago Center
06:43PM 41.8908 -88.9269 261° West 391 450 20,800 2,040 Climbing Chicago Center
06:44PM 41.8781 -89.0714 263° West 395 455 22,900 1,800 Climbing Chicago Center
06:45PM 41.8697 -89.2175 266° West 400 460 24,500 1,560 Climbing Chicago Center
06:46PM 41.8644 -89.3661 267° West 402 463 26,200 1,440 Climbing Chicago Center
06:47PM 41.8650 -89.5164 270° West 407 468 27,500 1,020 Climbing Chicago Center
06:48PM 41.8581 -89.6694 267° West 413 475 28,300 900 Climbing Chicago Center
06:49PM 41.8522 -89.8256 267° West 422 486 29,400 780 Climbing Chicago Center
06:50PM 41.8456 -90.0011 267° West 425 489 30,000 240 Climbing Chicago Center
06:51PM 41.8411 -90.1539 268° West 417 480 30,000  Level Chicago Center
06:52PM 41.8331 -90.3072 266° West 415 478 30,000  Level Chicago Center
06:53PM 41.8250 -90.4606 266° West 416 479 30,000  Level Chicago Center
06:54PM 41.8178 -90.6167 266° West 421 484 30,000  Level Chicago Center
06:55PM 41.8064 -90.8117 266° West 437 503 30,000  Level Chicago Center
06:56PM 41.7983 -90.9739 266° West 437 503 30,000  Level Chicago Center
06:57PM 41.7894 -91.1381 266° West 443 510 30,000  Level Chicago Center
06:58PM 41.7800 -91.3014 266° West 442 509 30,000  Level Chicago Center
06:59PM 41.7714 -91.4667 266° West 446 513 30,000  Level Chicago Center
07:00PM 41.7631 -91.6333 266° West 451 519 30,000  Level Chicago Center
07:01PM 41.7533 -91.8011 266° West 454 522 30,000  Level Chicago Center
07:02PM 41.7442 -91.9700 266° West 456 525 30,000  Level Chicago Center
07:03PM 41.7319 -92.1728 265° West 458 527 30,000  Level Chicago Center
07:04PM 41.7217 -92.3417 265° West 458 527 30,000  Level Chicago Center
07:05PM 41.7106 -92.5119 265° West 461 531 30,000  Level Chicago Center
07:06PM 41.7022 -92.6494 265° West 462 532 30,000  Level Minneapolis Center
07:07PM 41.6900 -92.8350 265° West 461 531 30,000  Level Minneapolis Center
07:08PM 41.6778 -93.0017 264° West 458 527 30,000  Level Minneapolis Center
07:09PM 41.6667 -93.1711 265° West 460 529 30,000  Level Minneapolis Center
07:10PM 41.6542 -93.3406 264° West 463 533 30,000  Level Minneapolis Center
07:11PM 41.6417 -93.5119 264° West 467 537 30,000  Level Minneapolis Center
07:12PM 41.6311 -93.6767 265° West 458 527 30,000 -180 Level Minneapolis Center
07:13PM 41.6178 -93.8467 264° West 462 532 29,700 -1,020 Descending Minneapolis Center
07:14PM 41.6042 -94.0508 265° West 465 535 28,000 -1,680 Descending Minneapolis Center
07:15PM 41.5900 -94.2200 264° West 464 534 26,400 -1,680 Descending Minneapolis Center
07:16PM 41.5786 -94.3758 264° West 460 529 24,600 -1,920 Descending Minneapolis Center
07:18PM 41.5647 -94.5367 263° West 445 512 22,600 -1,980 Descending Minneapolis Center
07:19PM 41.5506 -94.6856 263° West 414 476 20,600 -2,280 Descending Minneapolis Center
07:20PM 41.5367 -94.8567 264° West 390 449 18,000 -2,340 Descending Minneapolis Center
07:20PM 41.5411 -94.9519 274° West 379 436 16,800 -1,620 Descending Minneapolis Center
07:21PM 41.5264 -95.0933 262° West 359 413 15,200 -1,740 Descending Minneapolis Center
07:22PM 41.5142 -95.2425 264° West 316 364 12,800 -1,980 Descending Minneapolis Center
07:23PM 41.5044 -95.3439 263° West 301 346 11,100 -1,800 Descending Minneapolis Center
07:24PM 41.4989 -95.4422 266° West 286 329 9,600 -1,740 Descending Minneapolis Center
07:25PM 41.4953 -95.5428 267° West 270 311 7,800 -1,980 Descending Minneapolis Center
07:26PM 41.4744 -95.6344 253° West 256 295 5,700 -1,980 Descending Minneapolis Center
07:27PM 41.4469 -95.7211 247° West 255 293 3,900 -1,380 Descending Minneapolis Center
07:28PM 41.4211 -95.8075 248° West 253 291 3,000 -780 Descending Minneapolis Center
07:29PM 41.3969 -95.8828 247° West 193 222 2,400 -480 Descending Minneapolis Center
07:30PM 41.3756 -95.9381 243° Southwest 164 189 2,100 -300 Descending Minneapolis Center